Time;durP1;ratioP1;P1;durP2;ratioP2;P2;SDS_P1;SDS_P2;PMS_P1;PMS_P2;Temp;Humidity;BMP_temperature;BMP_pressure;BME280_temperature;BME280_humidity;BME280_pressure;Samples;Min_cycle;Max_cycle;Signal;HPM_P1;HPM_P2
2023/05/02 00:01:37;;;;;;;53.40;29.92;;;;;;;;;;5044965;28;20029;-71
2023/05/02 00:04:03;;;;;;;56.40;31.63;;;;;;;;;;5050745;28;20471;-71
2023/05/02 00:06:31;;;;;;;59.70;32.80;;;;;;;;;;5051387;28;20029;-71
2023/05/02 00:08:57;;;;;;;61.40;33.15;;;;;;;;;;5051377;28;20112;-71
2023/05/02 00:11:23;;;;;;;59.13;33.80;;;;;;;;;;5051419;28;20029;-71
2023/05/02 00:13:49;;;;;;;58.13;32.60;;;;;;;;;;5051147;28;20025;-71
2023/05/02 00:16:15;;;;;;;55.22;33.35;;;;;;;;;;5051485;28;20387;-70
2023/05/02 00:18:41;;;;;;;61.92;34.53;;;;;;;;;;5051831;28;20379;-70
2023/05/02 00:21:08;;;;;;;59.00;34.33;;;;;;;;;;5051370;28;20487;-71
2023/05/02 00:23:34;;;;;;;64.57;35.90;;;;;;;;;;5051040;28;20112;-71
2023/05/02 00:26:00;;;;;;;66.38;34.85;;;;;;;;;;5051379;28;20104;-71
2023/05/02 00:28:26;;;;;;;72.28;36.78;;;;;;;;;;5054414;28;20029;-71
2023/05/02 00:30:52;;;;;;;67.70;37.92;;;;;;;;;;5055360;28;20032;-71
2023/05/02 00:33:18;;;;;;;67.55;37.78;;;;;;;;;;5055069;28;20040;-71
2023/05/02 00:35:44;;;;;;;63.17;38.42;;;;;;;;;;5055430;28;20029;-70
2023/05/02 00:38:10;;;;;;;59.95;36.45;;;;;;;;;;5055114;28;20077;-72
2023/05/02 00:40:44;;;;;;;70.35;38.03;;;;;;;;;;5055251;28;20444;-71
2023/05/02 00:43:10;;;;;;;61.60;36.78;;;;;;;;;;5054797;28;20475;-73
2023/05/02 00:45:39;;;;;;;65.65;37.00;;;;;;;;;;5054909;28;20442;-71
2023/05/02 00:48:05;;;;;;;57.50;34.33;;;;;;;;;;5053703;28;20017;-70
2023/05/02 00:50:32;;;;;;;58.20;33.70;;;;;;;;;;5054856;28;20100;-70
2023/05/02 00:53:00;;;;;;;58.00;34.42;;;;;;;;;;5054783;28;20159;-71
2023/05/02 00:55:26;;;;;;;56.33;33.67;;;;;;;;;;5054960;28;20103;-70
2023/05/02 00:57:53;;;;;;;54.55;32.58;;;;;;;;;;5054929;28;20036;-70
2023/05/02 01:00:19;;;;;;;50.60;30.42;;;;;;;;;;5054590;28;20025;-71
2023/05/02 01:02:52;;;;;;;51.80;29.67;;;;;;;;;;5054424;28;20025;-70
2023/05/02 01:05:25;;;;;;;54.65;30.40;;;;;;;;;;5054783;28;20028;-71
2023/05/02 01:08:02;;;;;;;51.47;30.02;;;;;;;;;;5054719;28;20033;-71
2023/05/02 01:10:48;;;;;;;52.40;28.90;;;;;;;;;;5054604;28;20021;-70
2023/05/02 01:13:19;;;;;;;51.92;28.23;;;;;;;;;;5054379;28;20032;-71
2023/05/02 01:15:47;;;;;;;51.30;28.35;;;;;;;;;;5054620;28;20025;-70
2023/05/02 01:18:14;;;;;;;49.20;27.63;;;;;;;;;;5054393;28;20033;-73
2023/05/02 01:20:41;;;;;;;49.28;27.42;;;;;;;;;;5054422;28;20468;-71
2023/05/02 01:23:31;;;;;;;47.03;25.00;;;;;;;;;;5053884;28;20029;-71
2023/05/02 01:26:05;;;;;;;48.35;25.08;;;;;;;;;;5046284;28;20037;-73
2023/05/02 01:28:31;;;;;;;;;;;;;;;;;;5054691;28;20025;-71
2023/05/02 01:30:58;;;;;;;42.97;20.92;;;;;;;;;;5054103;28;19932;-72
2023/05/02 01:33:25;;;;;;;44.70;20.92;;;;;;;;;;5053679;28;20360;-72
2023/05/02 01:35:51;;;;;;;43.65;21.88;;;;;;;;;;5053659;28;20025;-71
2023/05/02 01:38:18;;;;;;;41.45;20.20;;;;;;;;;;5073519;28;20027;-71
2023/05/02 01:40:45;;;;;;;44.25;21.05;;;;;;;;;;5074021;28;20086;-71
2023/05/02 01:43:12;;;;;;;42.55;20.13;;;;;;;;;;5073789;28;20099;-71
2023/05/02 01:45:38;;;;;;;41.95;20.30;;;;;;;;;;5074441;28;20066;-70
2023/05/02 01:48:06;;;;;;;42.67;19.45;;;;;;;;;;5074147;28;20386;-71
2023/05/02 01:50:33;;;;;;;41.85;20.40;;;;;;;;;;5074412;28;20051;-71
2023/05/02 01:53:00;;;;;;;39.25;19.55;;;;;;;;;;5073391;28;20129;-73
2023/05/02 01:55:27;;;;;;;43.55;19.80;;;;;;;;;;5073781;28;20059;-71
2023/05/02 01:57:53;;;;;;;41.65;19.08;;;;;;;;;;5073716;28;20517;-71
2023/05/02 02:00:20;;;;;;;38.42;19.50;;;;;;;;;;5073485;28;20021;-71
2023/05/02 02:02:47;;;;;;;38.22;17.77;;;;;;;;;;5073128;28;20497;-71
2023/05/02 02:05:13;;;;;;;34.42;17.15;;;;;;;;;;5073504;28;20027;-71
2023/05/02 02:07:39;;;;;;;29.52;12.20;;;;;;;;;;5073120;28;20039;-71
2023/05/02 02:10:06;;;;;;;23.15;12.10;;;;;;;;;;5073414;28;20023;-70
2023/05/02 02:12:36;;;;;;;17.52;9.57;;;;;;;;;;5072780;28;20497;-71
2023/05/02 02:15:08;;;;;;;18.88;8.52;;;;;;;;;;5073268;28;20441;-70
2023/05/02 02:17:39;;;;;;;21.20;8.70;;;;;;;;;;5073073;28;20457;-71
2023/05/02 02:20:06;;;;;;;18.00;7.50;;;;;;;;;;5073228;28;20100;-70
2023/05/02 02:22:35;;;;;;;16.60;7.82;;;;;;;;;;5072542;28;20390;-70
2023/05/02 02:25:01;;;;;;;17.25;7.47;;;;;;;;;;5074216;28;20123;-75
2023/05/02 02:27:28;;;;;;;13.82;6.88;;;;;;;;;;5073434;28;20103;-74
2023/05/02 02:29:54;;;;;;;10.05;5.20;;;;;;;;;;5074623;28;20020;-74
2023/05/02 02:32:20;;;;;;;17.05;6.88;;;;;;;;;;5073022;28;20486;-73
2023/05/02 02:34:46;;;;;;;12.50;6.75;;;;;;;;;;5073020;28;20494;-72
2023/05/02 02:37:17;;;;;;;19.63;8.20;;;;;;;;;;5072502;28;20056;-73
2023/05/02 02:39:59;;;;;;;25.75;8.82;;;;;;;;;;5072928;28;20033;-72
2023/05/02 02:42:38;;;;;;;17.20;7.00;;;;;;;;;;5072224;28;20148;-71
2023/05/02 02:45:30;;;;;;;24.05;7.28;;;;;;;;;;5071291;28;20025;-72
2023/05/02 02:48:03;;;;;;;25.60;7.50;;;;;;;;;;5072941;28;20025;-71
2023/05/02 02:50:36;;;;;;;33.38;8.25;;;;;;;;;;5072083;28;20070;-72
2023/05/02 02:53:03;;;;;;;37.47;7.15;;;;;;;;;;5055379;28;20124;-71
2023/05/02 02:55:32;;;;;;;39.58;7.13;;;;;;;;;;5052469;28;20025;-71
2023/05/02 02:58:02;;;;;;;34.50;6.03;;;;;;;;;;5070699;28;20059;-71
2023/05/02 03:00:28;;;;;;;33.17;5.95;;;;;;;;;;5072211;28;20036;-71
2023/05/02 03:02:55;;;;;;;38.50;6.38;;;;;;;;;;5071647;28;20028;-71
2023/05/02 03:05:22;;;;;;;31.75;6.13;;;;;;;;;;5072724;28;20391;-70
2023/05/02 03:07:48;;;;;;;38.38;7.43;;;;;;;;;;5071667;28;20111;-71
2023/05/02 03:10:15;;;;;;;35.20;6.47;;;;;;;;;;5072023;28;20086;-71
2023/05/02 03:12:42;;;;;;;30.05;6.47;;;;;;;;;;5071790;28;20024;-72
2023/05/02 03:15:27;;;;;;;35.47;5.95;;;;;;;;;;5072474;28;20323;-71
2023/05/02 03:17:53;;;;;;;41.38;5.68;;;;;;;;;;5071851;28;20067;-71
2023/05/02 03:20:19;;;;;;;35.88;6.20;;;;;;;;;;5072327;28;20071;-71
2023/05/02 03:22:45;;;;;;;36.08;5.93;;;;;;;;;;5072271;28;20024;-71
2023/05/02 03:25:11;;;;;;;34.75;6.35;;;;;;;;;;5071931;28;20031;-70
2023/05/02 03:27:37;;;;;;;41.38;6.43;;;;;;;;;;5071952;28;20020;-70
2023/05/02 03:30:03;;;;;;;31.48;7.05;;;;;;;;;;5071999;28;20600;-71
2023/05/02 03:32:29;;;;;;;43.17;7.07;;;;;;;;;;5071939;28;20374;-70
2023/05/02 03:34:57;;;;;;;39.88;6.15;;;;;;;;;;5072201;28;20473;-70
2023/05/02 03:37:23;;;;;;;36.45;6.65;;;;;;;;;;5058142;28;20032;-71
2023/05/02 03:39:49;;;;;;;40.22;6.30;;;;;;;;;;5051593;28;20368;-72
2023/05/02 03:42:15;;;;;;;36.42;6.18;;;;;;;;;;5051285;28;20025;-73
2023/05/02 03:44:41;;;;;;;38.50;6.45;;;;;;;;;;5051651;28;20028;-72
2023/05/02 03:47:08;;;;;;;34.20;5.80;;;;;;;;;;5056031;28;20024;-72
2023/05/02 03:49:34;;;;;;;48.67;6.70;;;;;;;;;;5054308;28;20028;-73
2023/05/02 03:52:00;;;;;;;36.35;6.50;;;;;;;;;;5048934;28;20029;-73
2023/05/02 03:54:26;;;;;;;39.30;7.10;;;;;;;;;;5057293;28;20086;-72
2023/05/02 03:56:56;;;;;;;45.47;7.40;;;;;;;;;;5052231;28;20499;-72
2023/05/02 03:59:23;;;;;;;45.22;6.57;;;;;;;;;;5052366;28;20386;-73
2023/05/02 04:01:49;;;;;;;43.15;8.43;;;;;;;;;;5051210;28;20032;-70
2023/05/02 04:04:15;;;;;;;35.45;6.43;;;;;;;;;;5051643;28;20028;-74
2023/05/02 04:06:41;;;;;;;35.40;6.32;;;;;;;;;;5051956;28;20049;-72
2023/05/02 04:09:07;;;;;;;42.88;6.72;;;;;;;;;;5051500;28;20025;-72
2023/05/02 04:11:33;;;;;;;35.70;6.50;;;;;;;;;;5051701;28;20033;-74
2023/05/02 04:13:59;;;;;;;31.80;6.25;;;;;;;;;;5051290;28;20029;-71
2023/05/02 04:16:25;;;;;;;38.72;6.13;;;;;;;;;;5051794;28;20021;-72
2023/05/02 04:18:52;;;;;;;32.00;5.50;;;;;;;;;;5051465;28;20321;-70
2023/05/02 04:21:18;;;;;;;33.97;5.85;;;;;;;;;;5051725;28;20029;-72
2023/05/02 04:23:44;;;;;;;53.17;7.25;;;;;;;;;;5051148;28;20111;-72
2023/05/02 04:26:10;;;;;;;35.67;5.15;;;;;;;;;;5051370;28;20113;-72
2023/05/02 04:28:36;;;;;;;40.53;7.57;;;;;;;;;;5051219;28;20106;-71
2023/05/02 04:31:02;;;;;;;36.83;5.75;;;;;;;;;;5050791;28;20081;-75
2023/05/02 04:33:29;;;;;;;31.98;5.85;;;;;;;;;;5057514;28;20066;-74
2023/05/02 04:35:55;;;;;;;49.92;6.50;;;;;;;;;;5051114;28;20394;-73
2023/05/02 04:38:21;;;;;;;39.95;7.15;;;;;;;;;;5056316;28;20111;-74
2023/05/02 04:40:49;;;;;;;48.97;6.68;;;;;;;;;;5051119;28;20046;-73
2023/05/02 04:43:15;;;;;;;41.85;5.53;;;;;;;;;;5055024;28;20107;-73
2023/05/02 04:45:41;;;;;;;37.17;6.10;;;;;;;;;;5046269;28;21066;-74
2023/05/02 04:48:07;;;;;;;42.88;7.50;;;;;;;;;;5051023;28;20143;-74
2023/05/02 04:50:33;;;;;;;39.83;6.45;;;;;;;;;;5050959;28;20036;-71
2023/05/02 04:52:59;;;;;;;36.28;5.68;;;;;;;;;;5049560;28;20039;-71
2023/05/02 04:55:25;;;;;;;35.83;5.82;;;;;;;;;;5051149;28;20239;-72
2023/05/02 04:57:51;;;;;;;30.42;5.18;;;;;;;;;;5051246;28;20509;-72
2023/05/02 05:00:17;;;;;;;30.52;6.07;;;;;;;;;;5050921;28;20025;-71
2023/05/02 05:02:43;;;;;;;37.72;6.72;;;;;;;;;;5051096;28;20158;-71
2023/05/02 05:05:09;;;;;;;38.85;5.90;;;;;;;;;;5051226;28;20021;-72
2023/05/02 05:07:35;;;;;;;34.65;6.18;;;;;;;;;;5050854;28;20033;-71
2023/05/02 05:10:01;;;;;;;38.22;7.25;;;;;;;;;;5050750;28;20060;-71
2023/05/02 05:12:28;;;;;;;33.03;6.13;;;;;;;;;;5050515;28;20096;-73
2023/05/02 05:14:54;;;;;;;34.10;5.22;;;;;;;;;;5054390;28;20060;-71
2023/05/02 05:17:21;;;;;;;28.25;5.18;;;;;;;;;;5054432;28;20475;-74
2023/05/02 05:19:47;;;;;;;44.50;6.43;;;;;;;;;;5052765;28;20033;-71
2023/05/02 05:22:14;;;;;;;30.40;5.32;;;;;;;;;;5054801;28;20029;-72
2023/05/02 05:24:40;;;;;;;34.40;5.40;;;;;;;;;;5052535;28;20164;-74
2023/05/02 05:27:06;;;;;;;39.75;5.50;;;;;;;;;;5053845;28;20502;-76
2023/05/02 05:29:32;;;;;;;32.45;5.90;;;;;;;;;;5054682;28;20041;-75
2023/05/02 05:31:58;;;;;;;36.17;5.43;;;;;;;;;;5056029;28;20033;-72
2023/05/02 05:34:24;;;;;;;35.50;5.85;;;;;;;;;;5054258;28;20025;-73
2023/05/02 05:36:50;;;;;;;41.33;5.45;;;;;;;;;;5061663;28;20471;-73
2023/05/02 05:39:16;;;;;;;37.88;6.15;;;;;;;;;;5052563;28;20033;-74
2023/05/02 05:41:42;;;;;;;37.70;6.50;;;;;;;;;;5055374;28;20032;-73
2023/05/02 05:44:08;;;;;;;33.25;5.60;;;;;;;;;;5056180;28;20025;-73
2023/05/02 05:46:34;;;;;;;29.08;5.35;;;;;;;;;;5053840;28;20028;-72
2023/05/02 05:49:00;;;;;;;32.58;5.55;;;;;;;;;;5054703;28;20048;-73
2023/05/02 05:51:27;;;;;;;31.35;6.07;;;;;;;;;;5054245;28;20024;-73
2023/05/02 05:53:53;;;;;;;29.73;5.40;;;;;;;;;;5053727;28;20075;-73
2023/05/02 05:56:19;;;;;;;30.38;5.43;;;;;;;;;;5056969;28;20029;-73
2023/05/02 05:58:45;;;;;;;28.40;5.38;;;;;;;;;;5053562;28;20035;-73
2023/05/02 06:01:11;;;;;;;21.60;4.97;;;;;;;;;;5058251;28;20029;-73
2023/05/02 06:03:37;;;;;;;50.45;5.50;;;;;;;;;;5058630;28;20029;-73
2023/05/02 06:06:03;;;;;;;27.20;5.05;;;;;;;;;;5052879;28;20029;-73
2023/05/02 06:08:29;;;;;;;26.83;4.35;;;;;;;;;;5053090;28;20033;-72
2023/05/02 06:10:55;;;;;;;27.42;4.72;;;;;;;;;;5054103;28;20024;-74
2023/05/02 06:13:21;;;;;;;26.52;4.68;;;;;;;;;;5054154;28;20053;-72
2023/05/02 06:15:47;;;;;;;24.42;4.60;;;;;;;;;;5054332;28;20061;-72
2023/05/02 06:18:14;;;;;;;17.55;3.90;;;;;;;;;;5055952;28;20028;-72
2023/05/02 06:20:41;;;;;;;21.90;3.72;;;;;;;;;;5055838;28;20486;-73
2023/05/02 06:23:07;;;;;;;20.45;3.78;;;;;;;;;;5057619;28;20029;-74
2023/05/02 06:25:36;;;;;;;17.17;3.47;;;;;;;;;;5055269;28;20096;-78
2023/05/02 06:28:02;;;;;;;28.85;4.13;;;;;;;;;;5054867;28;20071;-73
2023/05/02 06:30:28;;;;;;;28.85;7.13;;;;;;;;;;5053292;28;20025;-71
2023/05/02 06:32:54;;;;;;;46.17;5.97;;;;;;;;;;5053334;28;20051;-72
2023/05/02 06:35:20;;;;;;;30.95;4.65;;;;;;;;;;5054499;28;20036;-72
2023/05/02 06:37:46;;;;;;;24.25;4.90;;;;;;;;;;5054645;28;20052;-71
2023/05/02 06:40:12;;;;;;;14.63;3.70;;;;;;;;;;5053385;28;20505;-72
2023/05/02 06:42:38;;;;;;;18.42;3.83;;;;;;;;;;5052607;28;20540;-72
2023/05/02 06:45:04;;;;;;;20.00;4.00;;;;;;;;;;5052951;28;20099;-71
2023/05/02 06:47:30;;;;;;;15.63;3.50;;;;;;;;;;5052791;28;20104;-69
2023/05/02 06:49:56;;;;;;;17.02;4.72;;;;;;;;;;5052128;28;20025;-73
2023/05/02 06:52:22;;;;;;;19.70;3.30;;;;;;;;;;5052035;28;20021;-70
2023/05/02 06:54:48;;;;;;;19.50;3.88;;;;;;;;;;5052690;28;20025;-70
2023/05/02 06:57:15;;;;;;;18.63;3.25;;;;;;;;;;5052882;28;20053;-70
2023/05/02 06:59:41;;;;;;;12.68;3.15;;;;;;;;;;5052557;28;20021;-71
2023/05/02 07:02:07;;;;;;;11.65;3.08;;;;;;;;;;5054387;28;20020;-71
2023/05/02 07:04:33;;;;;;;10.60;3.10;;;;;;;;;;5052531;28;20489;-71
2023/05/02 07:06:59;;;;;;;14.70;3.42;;;;;;;;;;5052261;28;20048;-71
2023/05/02 07:09:25;;;;;;;12.13;3.42;;;;;;;;;;5052384;28;20013;-73
2023/05/02 07:11:51;;;;;;;8.13;2.42;;;;;;;;;;5051995;28;20032;-71
2023/05/02 07:14:17;;;;;;;13.18;2.80;;;;;;;;;;5052618;28;20062;-72
2023/05/02 07:16:43;;;;;;;16.23;2.55;;;;;;;;;;5052812;28;20311;-71
2023/05/02 07:19:09;;;;;;;12.80;2.60;;;;;;;;;;5052732;28;20121;-72
2023/05/02 07:21:35;;;;;;;10.88;2.03;;;;;;;;;;5052481;28;20028;-70
2023/05/02 07:24:02;;;;;;;9.27;2.20;;;;;;;;;;5051845;28;20064;-70
2023/05/02 07:26:27;;;;;;;13.65;2.30;;;;;;;;;;5052129;28;20024;-71
2023/05/02 07:28:54;;;;;;;14.25;3.25;;;;;;;;;;5051770;28;20033;-71
2023/05/02 07:31:20;;;;;;;17.40;2.70;;;;;;;;;;5051803;28;20028;-72
2023/05/02 07:33:45;;;;;;;14.55;3.70;;;;;;;;;;5052037;28;20047;-70
2023/05/02 07:36:12;;;;;;;18.27;2.75;;;;;;;;;;5051957;28;20039;-71
2023/05/02 07:38:37;;;;;;;16.17;2.80;;;;;;;;;;5051814;28;20021;-70
2023/05/02 07:41:03;;;;;;;14.90;2.92;;;;;;;;;;5051687;28;20017;-71
2023/05/02 07:43:30;;;;;;;10.05;2.60;;;;;;;;;;5051604;28;20435;-73
2023/05/02 07:45:55;;;;;;;10.27;2.70;;;;;;;;;;5052133;28;20021;-71
2023/05/02 07:48:21;;;;;;;14.55;2.90;;;;;;;;;;5052387;28;20068;-73
2023/05/02 07:50:47;;;;;;;19.33;3.63;;;;;;;;;;5051931;28;20025;-71
2023/05/02 07:53:13;;;;;;;15.52;2.85;;;;;;;;;;5051378;28;20107;-71
2023/05/02 07:55:40;;;;;;;14.82;2.83;;;;;;;;;;5051860;28;20025;-71
2023/05/02 07:58:05;;;;;;;23.42;2.90;;;;;;;;;;5051641;28;20029;-71
2023/05/02 08:00:31;;;;;;;10.30;2.33;;;;;;;;;;5051749;28;20368;-71
2023/05/02 08:02:57;;;;;;;16.00;2.97;;;;;;;;;;5051611;28;20025;-72
2023/05/02 08:05:23;;;;;;;21.23;2.92;;;;;;;;;;5051811;28;20556;-71
2023/05/02 08:07:49;;;;;;;17.73;3.03;;;;;;;;;;5052187;28;20052;-73
2023/05/02 08:10:15;;;;;;;17.77;2.72;;;;;;;;;;5051964;28;20147;-71
2023/05/02 08:12:41;;;;;;;10.38;2.10;;;;;;;;;;5051154;28;20060;-71
2023/05/02 08:15:08;;;;;;;13.23;2.40;;;;;;;;;;5051711;28;20025;-71
2023/05/02 08:17:34;;;;;;;9.45;2.40;;;;;;;;;;5051658;28;20033;-71
2023/05/02 08:20:00;;;;;;;14.38;2.47;;;;;;;;;;5051512;28;20032;-73
2023/05/02 08:22:26;;;;;;;17.75;2.90;;;;;;;;;;5051113;28;20033;-72
2023/05/02 08:24:52;;;;;;;19.33;3.15;;;;;;;;;;5051479;28;20449;-72
2023/05/02 08:27:18;;;;;;;18.42;3.33;;;;;;;;;;5051185;28;20509;-71
2023/05/02 08:29:44;;;;;;;21.33;3.35;;;;;;;;;;5051288;28;20029;-72
2023/05/02 08:32:10;;;;;;;15.02;2.88;;;;;;;;;;5051165;28;20025;-71
2023/05/02 08:34:36;;;;;;;14.70;3.85;;;;;;;;;;5051477;28;20032;-71
2023/05/02 08:37:07;;;;;;;14.88;2.60;;;;;;;;;;5050003;28;20122;-71
2023/05/02 08:39:34;;;;;;;14.00;2.92;;;;;;;;;;5051488;28;20100;-72
2023/05/02 08:42:00;;;;;;;13.45;2.58;;;;;;;;;;5051093;28;20028;-71
2023/05/02 08:44:26;;;;;;;13.15;2.80;;;;;;;;;;5051235;28;20033;-71
2023/05/02 08:46:52;;;;;;;19.20;2.85;;;;;;;;;;5051324;28;20021;-72
2023/05/02 08:49:19;;;;;;;9.80;2.70;;;;;;;;;;5053827;28;20029;-71
2023/05/02 08:51:45;;;;;;;12.15;3.13;;;;;;;;;;5054605;28;20027;-71
2023/05/02 08:54:16;;;;;;;20.45;2.97;;;;;;;;;;5054852;28;20159;-72
2023/05/02 08:56:41;;;;;;;13.73;2.67;;;;;;;;;;5054805;28;20112;-70
2023/05/02 08:59:07;;;;;;;14.45;2.60;;;;;;;;;;5054844;28;20056;-71
2023/05/02 09:01:35;;;;;;;9.65;2.50;;;;;;;;;;5054818;28;20489;-71
2023/05/02 09:04:01;;;;;;;17.77;2.75;;;;;;;;;;5054436;28;20025;-71
2023/05/02 09:06:28;;;;;;;16.77;2.67;;;;;;;;;;5054852;28;20056;-71
2023/05/02 09:08:54;;;;;;;15.30;3.72;;;;;;;;;;5054766;28;20454;-73
2023/05/02 09:11:21;;;;;;;15.10;2.30;;;;;;;;;;5055005;28;20032;-72
2023/05/02 09:13:51;;;;;;;13.23;2.20;;;;;;;;;;5054550;28;20064;-73
2023/05/02 09:16:25;;;;;;;8.45;2.30;;;;;;;;;;5055269;28;20099;-71
2023/05/02 09:18:53;;;;;;;10.90;2.45;;;;;;;;;;5055515;28;20060;-71
2023/05/02 09:21:20;;;;;;;10.85;2.25;;;;;;;;;;5056705;28;20109;-71
2023/05/02 09:23:47;;;;;;;9.05;2.22;;;;;;;;;;5056794;28;20044;-71
2023/05/02 09:26:13;;;;;;;10.73;1.80;;;;;;;;;;5054445;28;20036;-70
2023/05/02 09:28:46;;;;;;;8.25;2.30;;;;;;;;;;5054794;28;20021;-70
2023/05/02 09:31:13;;;;;;;15.60;2.63;;;;;;;;;;5054834;28;20033;-71
2023/05/02 09:33:40;;;;;;;9.35;1.90;;;;;;;;;;5054203;28;20435;-72
2023/05/02 09:36:06;;;;;;;7.68;1.60;;;;;;;;;;5054264;28;20525;-70
2023/05/02 09:38:32;;;;;;;10.02;2.10;;;;;;;;;;5054736;28;20104;-71
2023/05/02 09:40:59;;;;;;;12.95;2.20;;;;;;;;;;5054454;28;20031;-71
2023/05/02 09:43:26;;;;;;;10.20;2.63;;;;;;;;;;5053779;28;20123;-70
2023/05/02 09:46:05;;;;;;;7.63;1.98;;;;;;;;;;5053885;28;20029;-71
2023/05/02 09:48:32;;;;;;;18.98;2.17;;;;;;;;;;5053975;28;20025;-70
2023/05/02 09:50:58;;;;;;;6.82;2.50;;;;;;;;;;5053841;28;20029;-70
2023/05/02 09:53:25;;;;;;;10.13;2.75;;;;;;;;;;5053903;28;20036;-72
2023/05/02 09:55:59;;;;;;;6.38;2.25;;;;;;;;;;5053630;28;20040;-71
2023/05/02 09:58:25;;;;;;;11.63;2.78;;;;;;;;;;5053553;28;20505;-71
2023/05/02 10:00:51;;;;;;;10.32;2.42;;;;;;;;;;5053096;28;20029;-70
2023/05/02 10:03:18;;;;;;;9.80;2.40;;;;;;;;;;5052887;28;20025;-70
2023/05/02 10:05:45;;;;;;;11.45;2.83;;;;;;;;;;5053284;28;20025;-71
2023/05/02 10:08:12;;;;;;;11.45;2.53;;;;;;;;;;5053118;28;20041;-71
2023/05/02 10:10:39;;;;;;;11.85;3.00;;;;;;;;;;5053355;28;20467;-72
2023/05/02 10:13:06;;;;;;;12.10;3.05;;;;;;;;;;5053029;28;20021;-71
2023/05/02 10:15:33;;;;;;;13.20;2.75;;;;;;;;;;5053379;28;20028;-71
2023/05/02 10:18:00;;;;;;;15.23;3.95;;;;;;;;;;5053397;28;20502;-71
2023/05/02 10:20:30;;;;;;;10.23;2.97;;;;;;;;;;5053575;28;20037;-72
2023/05/02 10:22:58;;;;;;;11.90;3.10;;;;;;;;;;5053341;28;20036;-71
2023/05/02 10:25:24;;;;;;;7.95;3.28;;;;;;;;;;5053349;28;20086;-70
2023/05/02 10:27:51;;;;;;;9.57;2.90;;;;;;;;;;5053007;28;20021;-71
2023/05/02 10:30:17;;;;;;;9.80;2.30;;;;;;;;;;5053090;28;20096;-71
2023/05/02 10:32:44;;;;;;;9.70;2.50;;;;;;;;;;5052692;28;20036;-71
2023/05/02 10:35:11;;;;;;;8.15;1.98;;;;;;;;;;5053095;28;20029;-70
2023/05/02 10:37:38;;;;;;;11.27;2.33;;;;;;;;;;5052944;28;20052;-71
2023/05/02 10:40:05;;;;;;;10.77;2.60;;;;;;;;;;5052876;28;20021;-71
2023/05/02 10:42:31;;;;;;;9.75;2.10;;;;;;;;;;5052710;28;20120;-71
2023/05/02 10:44:57;;;;;;;8.55;2.33;;;;;;;;;;5052849;28;20029;-71
2023/05/02 10:47:25;;;;;;;10.43;2.08;;;;;;;;;;5053414;28;20039;-72
2023/05/02 10:49:52;;;;;;;12.77;2.08;;;;;;;;;;5053209;28;20051;-72
2023/05/02 10:52:26;;;;;;;10.70;3.70;;;;;;;;;;5052337;28;20025;-71
2023/05/02 10:54:52;;;;;;;11.40;2.42;;;;;;;;;;5052716;28;20062;-71
2023/05/02 10:57:18;;;;;;;12.07;3.72;;;;;;;;;;5052664;28;20111;-72
2023/05/02 10:59:45;;;;;;;11.50;2.40;;;;;;;;;;5052559;28;20017;-71
2023/05/02 11:02:24;;;;;;;17.83;3.10;;;;;;;;;;5051982;28;20025;-70
2023/05/02 11:05:06;;;;;;;8.70;2.20;;;;;;;;;;5052443;28;20047;-71
2023/05/02 11:07:32;;;;;;;11.13;2.95;;;;;;;;;;5052207;28;20036;-75
2023/05/02 11:10:17;;;;;;;10.70;2.50;;;;;;;;;;5052551;28;20033;-72
2023/05/02 11:12:44;;;;;;;12.70;2.75;;;;;;;;;;5051686;28;20082;-70
2023/05/02 11:15:10;;;;;;;12.10;2.55;;;;;;;;;;5052388;28;20123;-69
2023/05/02 11:17:55;;;;;;;14.10;2.15;;;;;;;;;;5052283;28;20418;-70
2023/05/02 11:20:21;;;;;;;8.13;1.70;;;;;;;;;;5052105;28;20036;-71
2023/05/02 11:22:48;;;;;;;9.90;2.63;;;;;;;;;;5050303;28;20471;-70
2023/05/02 11:25:30;;;;;;;8.40;1.80;;;;;;;;;;5052223;28;20391;-70
2023/05/02 11:27:56;;;;;;;13.30;2.45;;;;;;;;;;5052005;28;20043;-71
2023/05/02 11:30:49;;;;;;;13.20;2.70;;;;;;;;;;5051805;28;20056;-70
2023/05/02 11:33:16;;;;;;;14.57;1.80;;;;;;;;;;5050200;28;20403;-71
2023/05/02 11:35:43;;;;;;;10.25;1.80;;;;;;;;;;5052226;28;20094;-70
2023/05/02 11:38:10;;;;;;;8.85;3.15;;;;;;;;;;5052506;28;20032;-71
2023/05/02 11:40:36;;;;;;;12.15;2.28;;;;;;;;;;5052470;28;20036;-70
2023/05/02 11:43:12;;;;;;;10.52;1.98;;;;;;;;;;5051749;28;20029;-72
2023/05/02 11:45:38;;;;;;;9.73;1.70;;;;;;;;;;5052592;28;20675;-72
2023/05/02 11:48:08;;;;;;;12.93;3.15;;;;;;;;;;5052186;28;20033;-71
2023/05/02 11:50:40;;;;;;;8.57;1.58;;;;;;;;;;5051529;28;20021;-71
2023/05/02 11:53:10;;;;;;;12.30;2.30;;;;;;;;;;5051266;28;20503;-71
2023/05/02 11:55:37;;;;;;;11.63;2.25;;;;;;;;;;5052376;28;20502;-72
2023/05/02 11:58:03;;;;;;;9.65;1.90;;;;;;;;;;5050797;28;20024;-71
2023/05/02 12:00:29;;;;;;;12.82;1.98;;;;;;;;;;5051335;28;20383;-70
2023/05/02 12:02:55;;;;;;;8.70;2.13;;;;;;;;;;5051177;28;20029;-72
2023/05/02 12:05:28;;;;;;;23.48;6.82;;;;;;;;;;5051624;28;20025;-70
2023/05/02 12:07:55;;;;;;;14.98;2.97;;;;;;;;;;5051571;28;20064;-72
2023/05/02 12:10:21;;;;;;;12.25;2.25;;;;;;;;;;5050979;28;20079;-71
2023/05/02 12:12:47;;;;;;;9.25;1.98;;;;;;;;;;5051150;28;20032;-71
2023/05/02 12:15:13;;;;;;;10.43;2.88;;;;;;;;;;5051690;28;20087;-71
2023/05/02 12:17:40;;;;;;;17.02;2.80;;;;;;;;;;5051610;28;20751;-71
2023/05/02 12:20:07;;;;;;;11.60;2.00;;;;;;;;;;5051299;28;20058;-70
2023/05/02 12:22:34;;;;;;;12.30;2.03;;;;;;;;;;5053064;28;20025;-72
2023/05/02 12:25:00;;;;;;;10.80;2.38;;;;;;;;;;5055686;28;20021;-71
2023/05/02 12:27:26;;;;;;;9.68;2.53;;;;;;;;;;5055585;28;20079;-73
2023/05/02 12:29:53;;;;;;;8.32;2.65;;;;;;;;;;5055523;28;20025;-71
2023/05/02 12:32:29;;;;;;;12.65;2.03;;;;;;;;;;5055211;28;20082;-71
2023/05/02 12:34:55;;;;;;;14.73;1.80;;;;;;;;;;5055360;28;20451;-70
2023/05/02 12:37:25;;;;;;;10.57;2.40;;;;;;;;;;5053790;28;20528;-70
2023/05/02 12:39:52;;;;;;;9.07;1.80;;;;;;;;;;5055306;28;20049;-71
2023/05/02 12:42:19;;;;;;;12.05;2.40;;;;;;;;;;5054781;28;20094;-70
2023/05/02 12:44:46;;;;;;;15.82;2.20;;;;;;;;;;5056622;28;20333;-75
2023/05/02 12:47:13;;;;;;;8.20;3.13;;;;;;;;;;5056232;28;20112;-76
2023/05/02 12:49:49;;;;;;;10.77;2.38;;;;;;;;;;5055585;28;20033;-74
2023/05/02 12:52:16;;;;;;;11.20;2.47;;;;;;;;;;5055027;28;20158;-72
2023/05/02 12:54:42;;;;;;;15.45;2.80;;;;;;;;;;5055265;28;20021;-72
2023/05/02 12:57:08;;;;;;;17.35;2.60;;;;;;;;;;5055111;28;20439;-73
2023/05/02 12:59:34;;;;;;;10.95;2.15;;;;;;;;;;5049790;28;20021;-71
2023/05/02 13:02:00;;;;;;;11.27;2.22;;;;;;;;;;5054371;28;20104;-75
2023/05/02 13:04:36;;;;;;;9.77;2.35;;;;;;;;;;5054413;28;20112;-73
2023/05/02 13:07:02;;;;;;;12.35;2.10;;;;;;;;;;5056091;28;20112;-73
2023/05/02 13:09:28;;;;;;;11.82;2.28;;;;;;;;;;5058042;28;20068;-71
2023/05/02 13:11:54;;;;;;;15.63;3.10;;;;;;;;;;5054783;28;20054;-71
2023/05/02 13:14:20;;;;;;;9.57;1.98;;;;;;;;;;5053249;28;20036;-71
2023/05/02 13:16:46;;;;;;;8.38;2.33;;;;;;;;;;5054936;28;20052;-71
2023/05/02 13:19:12;;;;;;;12.75;2.30;;;;;;;;;;5055625;28;20471;-71
2023/05/02 13:21:38;;;;;;;18.20;2.35;;;;;;;;;;5059961;28;20035;-73
2023/05/02 13:24:04;;;;;;;12.07;2.28;;;;;;;;;;5054990;28;20032;-71
2023/05/02 13:26:30;;;;;;;9.95;2.50;;;;;;;;;;5055344;28;20502;-75
2023/05/02 13:28:56;;;;;;;8.88;2.42;;;;;;;;;;5055143;28;20040;-72
2023/05/02 13:31:22;;;;;;;10.00;2.30;;;;;;;;;;5054404;28;20021;-70
2023/05/02 13:33:48;;;;;;;11.63;2.08;;;;;;;;;;5053878;28;20031;-71
2023/05/02 13:36:14;;;;;;;8.93;2.42;;;;;;;;;;5055601;28;20503;-71
2023/05/02 13:38:40;;;;;;;10.38;1.83;;;;;;;;;;5054852;28;20035;-71
2023/05/02 13:41:06;;;;;;;11.57;2.22;;;;;;;;;;5056747;28;20029;-73
2023/05/02 13:43:32;;;;;;;9.35;2.40;;;;;;;;;;5055581;28;20037;-72
2023/05/02 13:45:59;;;;;;;13.75;2.25;;;;;;;;;;5054829;28;20551;-71
2023/05/02 13:48:25;;;;;;;12.27;2.60;;;;;;;;;;5055470;28;20032;-74
2023/05/02 13:50:50;;;;;;;11.07;2.08;;;;;;;;;;5055145;28;20080;-73
2023/05/02 13:53:16;;;;;;;11.43;2.00;;;;;;;;;;5054692;28;20036;-72
2023/05/02 13:55:42;;;;;;;7.70;2.30;;;;;;;;;;5054645;28;20560;-72
2023/05/02 13:58:08;;;;;;;11.23;2.30;;;;;;;;;;5055213;28;20033;-71
2023/05/02 14:00:35;;;;;;;9.98;2.40;;;;;;;;;;5054706;28;20034;-70
2023/05/02 14:03:01;;;;;;;12.35;2.30;;;;;;;;;;5054435;28;20093;-71
2023/05/02 14:05:27;;;;;;;11.45;2.30;;;;;;;;;;5054621;28;20036;-72
2023/05/02 14:07:53;;;;;;;9.73;2.22;;;;;;;;;;5054485;28;20483;-74
2023/05/02 14:10:18;;;;;;;11.63;2.40;;;;;;;;;;5054782;28;20024;-72
2023/05/02 14:12:45;;;;;;;16.42;2.63;;;;;;;;;;5056294;28;20085;-73
2023/05/02 14:15:11;;;;;;;12.50;2.30;;;;;;;;;;5054684;28;20047;-71
2023/05/02 14:17:37;;;;;;;10.48;2.20;;;;;;;;;;5057601;28;20493;-71
2023/05/02 14:20:04;;;;;;;13.63;2.40;;;;;;;;;;5072931;28;20112;-71
2023/05/02 14:22:30;;;;;;;5.93;2.03;;;;;;;;;;5055890;28;20044;-73
2023/05/02 14:24:56;;;;;;;12.48;2.60;;;;;;;;;;5053691;28;20057;-71
2023/05/02 14:27:22;;;;;;;7.55;1.67;;;;;;;;;;5053527;28;20025;-73
2023/05/02 14:29:48;;;;;;;9.25;2.20;;;;;;;;;;5054065;28;20029;-72
2023/05/02 14:32:15;;;;;;;6.82;2.20;;;;;;;;;;5052646;28;20451;-72